createdAt,value
2023-05-10T00:00:31.673Z,8.611111111111143
2023-05-10T00:01:31.665Z,8.611111111111143
2023-05-10T00:02:31.852Z,8.611111111111143
2023-05-10T00:03:31.728Z,8.611111111111143
2023-05-10T00:04:31.720Z,8.611111111111143
2023-05-10T00:05:31.650Z,8.611111111111143
2023-05-10T00:06:31.719Z,8.611111111111143
2023-05-10T00:07:31.652Z,8.500000000000057
2023-05-10T00:08:31.642Z,8.500000000000057
2023-05-10T00:09:31.708Z,8.500000000000057
2023-05-10T00:10:31.683Z,8.500000000000057
2023-05-10T00:11:31.664Z,8.500000000000057
2023-05-10T00:12:31.671Z,8.500000000000057
2023-05-10T00:13:31.724Z,8.388888888888971
2023-05-10T00:14:31.674Z,8.388888888888971
2023-05-10T00:15:31.656Z,8.388888888888971
2023-05-10T00:16:31.795Z,8.388888888888971
2023-05-10T00:17:31.715Z,8.388888888888971
2023-05-10T00:18:31.659Z,8.388888888888971
2023-05-10T00:19:31.623Z,8.277777777777828
2023-05-10T00:20:31.669Z,8.277777777777828
2023-05-10T00:21:31.713Z,8.277777777777828
2023-05-10T00:22:31.725Z,8.277777777777828
2023-05-10T00:23:31.735Z,8.277777777777828
2023-05-10T00:24:31.656Z,8.277777777777828
2023-05-10T00:25:31.653Z,8.222222222222285
2023-05-10T00:26:31.684Z,8.222222222222285
2023-05-10T00:27:31.639Z,8.222222222222285
2023-05-10T00:28:31.645Z,8.222222222222285
2023-05-10T00:29:31.652Z,8.222222222222285
2023-05-10T00:30:31.589Z,8.222222222222285
2023-05-10T00:31:31.745Z,8.222222222222285
2023-05-10T00:32:31.753Z,8.111111111111143
2023-05-10T00:33:31.688Z,8.111111111111143
2023-05-10T00:34:31.744Z,8.111111111111143
2023-05-10T00:35:31.906Z,8.111111111111143
2023-05-10T00:36:31.669Z,8.111111111111143
2023-05-10T00:37:31.672Z,8.111111111111143
2023-05-10T00:38:31.656Z,8.111111111111143
2023-05-10T00:39:31.663Z,8.111111111111143
2023-05-10T00:40:31.664Z,8.111111111111143
2023-05-10T00:41:31.681Z,8.000000000000057
2023-05-10T00:42:31.658Z,8.000000000000057
2023-05-10T00:43:31.669Z,8.000000000000057
2023-05-10T00:44:31.667Z,8.000000000000057
2023-05-10T00:45:31.766Z,8.000000000000057
2023-05-10T00:46:31.711Z,8.000000000000057
2023-05-10T00:47:31.679Z,8.000000000000057
2023-05-10T00:48:31.672Z,8.000000000000057
2023-05-10T00:49:31.682Z,8.000000000000057
2023-05-10T00:50:31.650Z,8.000000000000057
2023-05-10T00:51:31.663Z,7.888888888888914
2023-05-10T00:52:31.638Z,7.888888888888914
2023-05-10T00:53:31.682Z,7.888888888888914
2023-05-10T00:54:31.889Z,7.888888888888914
2023-05-10T00:55:31.758Z,7.888888888888914
2023-05-10T00:56:31.688Z,7.888888888888914
2023-05-10T00:57:31.675Z,7.777777777777828
2023-05-10T00:58:31.629Z,7.777777777777828
2023-05-10T00:59:31.719Z,7.777777777777828
2023-05-10T01:00:31.678Z,7.777777777777828
2023-05-10T01:01:31.743Z,7.777777777777828
2023-05-10T01:02:31.719Z,7.777777777777828
2023-05-10T01:03:31.725Z,7.7222222222222285
2023-05-10T01:04:31.832Z,7.7222222222222285
2023-05-10T01:05:31.749Z,7.7222222222222285
2023-05-10T01:06:31.637Z,7.7222222222222285
2023-05-10T01:07:31.679Z,7.7222222222222285
2023-05-10T01:08:31.770Z,7.7222222222222285
2023-05-10T01:09:31.681Z,7.7222222222222285
2023-05-10T01:10:31.668Z,7.611111111111143
2023-05-10T01:11:31.657Z,7.611111111111143
2023-05-10T01:12:31.760Z,7.611111111111143
2023-05-10T01:13:31.731Z,7.611111111111143
2023-05-10T01:14:31.685Z,7.611111111111143
2023-05-10T01:15:31.661Z,7.611111111111143
2023-05-10T01:16:31.774Z,7.611111111111143
2023-05-10T01:17:31.729Z,7.611111111111143
2023-05-10T01:18:31.679Z,7.611111111111143
2023-05-10T01:19:31.718Z,7.611111111111143
2023-05-10T01:20:31.684Z,7.500000000000057
2023-05-10T01:21:31.673Z,7.500000000000057
2023-05-10T01:22:31.715Z,7.500000000000057
2023-05-10T01:23:31.709Z,7.500000000000057
2023-05-10T01:24:31.808Z,7.500000000000057
2023-05-10T01:25:31.744Z,7.500000000000057
2023-05-10T01:26:31.698Z,7.500000000000057
2023-05-10T01:27:31.694Z,7.500000000000057
2023-05-10T01:28:31.683Z,7.388888888888914
2023-05-10T01:29:31.661Z,7.388888888888914
2023-05-10T01:30:31.670Z,7.388888888888914
2023-05-10T01:31:31.735Z,7.277777777777828
2023-05-10T01:32:31.710Z,7.277777777777828
2023-05-10T01:33:31.740Z,7.277777777777828
2023-05-10T01:34:31.659Z,7.277777777777828
2023-05-10T01:35:31.802Z,7.277777777777828
2023-05-10T01:36:31.620Z,7.277777777777828
2023-05-10T01:37:31.700Z,7.277777777777828
2023-05-10T01:38:31.691Z,7.277777777777828
2023-05-10T01:39:31.686Z,7.222222222222285
2023-05-10T01:40:31.784Z,7.222222222222285
2023-05-10T01:41:31.764Z,7.222222222222285
2023-05-10T01:42:31.746Z,7.222222222222285
2023-05-10T01:43:31.867Z,7.222222222222285
2023-05-10T01:44:31.750Z,7.222222222222285
2023-05-10T01:45:31.810Z,7.222222222222285
2023-05-10T01:46:31.923Z,7.222222222222285
2023-05-10T01:47:31.844Z,7.222222222222285
2023-05-10T01:48:31.805Z,7.111111111111143
2023-05-10T01:49:31.816Z,7.111111111111143
2023-05-10T01:50:31.804Z,7.111111111111143
2023-05-10T01:51:31.754Z,7.111111111111143
2023-05-10T01:52:31.820Z,7.111111111111143
2023-05-10T01:53:31.747Z,7.111111111111143
2023-05-10T01:54:31.803Z,7.111111111111143
2023-05-10T01:55:31.850Z,7.111111111111143
2023-05-10T01:56:31.841Z,7.111111111111143
2023-05-10T01:57:31.776Z,7.111111111111143
2023-05-10T01:58:31.827Z,7.000000000000057
2023-05-10T01:59:31.642Z,7.000000000000057
2023-05-10T02:00:31.631Z,7.000000000000057
2023-05-10T02:01:31.633Z,7.000000000000057
2023-05-10T02:02:31.724Z,7.000000000000057
2023-05-10T02:03:31.682Z,7.000000000000057
2023-05-10T02:04:31.656Z,7.000000000000057
2023-05-10T02:05:31.644Z,7.000000000000057
2023-05-10T02:06:31.645Z,7.000000000000057
2023-05-10T02:07:31.666Z,7.000000000000057
2023-05-10T02:08:31.641Z,7.000000000000057
2023-05-10T02:09:31.707Z,7.000000000000057
2023-05-10T02:10:31.675Z,7.000000000000057
2023-05-10T02:11:31.646Z,7.000000000000057
2023-05-10T02:12:31.632Z,7.000000000000057
2023-05-10T02:13:31.708Z,7.000000000000057
2023-05-10T02:14:31.676Z,6.888888888888914
2023-05-10T02:15:31.649Z,6.888888888888914
2023-05-10T02:16:31.649Z,6.888888888888914
2023-05-10T02:17:31.688Z,6.888888888888914
2023-05-10T02:18:31.695Z,6.888888888888914
2023-05-10T02:19:31.655Z,6.888888888888914
2023-05-10T02:20:31.630Z,6.888888888888914
2023-05-10T02:21:31.629Z,6.888888888888914
2023-05-10T02:22:31.664Z,6.888888888888914
2023-05-10T02:23:31.659Z,6.888888888888914
2023-05-10T02:24:31.728Z,6.888888888888914
2023-05-10T02:25:31.626Z,6.888888888888914
2023-05-10T02:26:31.635Z,6.777777777777828
2023-05-10T02:27:31.679Z,6.777777777777828
2023-05-10T02:28:31.679Z,6.777777777777828
2023-05-10T02:29:31.688Z,6.777777777777828
2023-05-10T02:30:31.619Z,6.777777777777828
2023-05-10T02:31:31.657Z,6.777777777777828
2023-05-10T02:32:31.671Z,6.888888888888914
2023-05-10T02:33:31.716Z,6.777777777777828
2023-05-10T02:34:31.747Z,6.777777777777828
2023-05-10T02:35:31.726Z,6.777777777777828
2023-05-10T02:36:31.635Z,6.888888888888914
2023-05-10T02:37:31.657Z,6.888888888888914
2023-05-10T02:38:31.633Z,6.888888888888914
2023-05-10T02:39:31.785Z,6.888888888888914
2023-05-10T02:40:31.662Z,6.777777777777828
2023-05-10T02:41:31.719Z,6.777777777777828
2023-05-10T02:42:31.627Z,6.777777777777828
2023-05-10T02:43:31.644Z,6.777777777777828
2023-05-10T02:44:31.640Z,6.777777777777828
2023-05-10T02:45:31.692Z,6.722222222222285
2023-05-10T02:46:31.823Z,6.722222222222285
2023-05-10T02:47:31.689Z,6.611111111111143
2023-05-10T02:48:31.634Z,6.611111111111143
2023-05-10T02:49:31.697Z,6.500000000000057
2023-05-10T02:50:31.640Z,6.500000000000057
2023-05-10T02:51:31.694Z,6.500000000000057
2023-05-10T02:52:31.652Z,6.500000000000057
2023-05-10T02:53:31.689Z,6.500000000000057
2023-05-10T02:54:31.679Z,6.388888888888914
2023-05-10T02:55:31.644Z,6.388888888888914
2023-05-10T02:56:31.614Z,6.388888888888914
2023-05-10T02:57:31.665Z,6.388888888888914
2023-05-10T02:58:31.643Z,6.388888888888914
2023-05-10T02:59:31.700Z,6.388888888888914
2023-05-10T03:00:31.618Z,6.388888888888914
2023-05-10T03:01:31.775Z,6.388888888888914
2023-05-10T03:02:31.684Z,6.277777777777828
2023-05-10T03:03:31.674Z,6.277777777777828
2023-05-10T03:04:31.771Z,6.277777777777828
2023-05-10T03:05:31.678Z,6.277777777777828
2023-05-10T03:06:31.614Z,6.277777777777828
2023-05-10T03:07:31.708Z,6.277777777777828
2023-05-10T03:08:31.647Z,6.277777777777828
2023-05-10T03:09:31.698Z,6.277777777777828
2023-05-10T03:10:31.838Z,6.277777777777828
2023-05-10T03:11:31.735Z,6.277777777777828
2023-05-10T03:12:31.672Z,6.277777777777828
2023-05-10T03:13:31.775Z,6.277777777777828
2023-05-10T03:14:31.678Z,6.388888888888914
2023-05-10T03:15:31.701Z,6.388888888888914
2023-05-10T03:16:31.672Z,6.388888888888914
2023-05-10T03:17:31.904Z,6.388888888888914
2023-05-10T03:18:31.804Z,6.388888888888914
2023-05-10T03:19:31.764Z,6.388888888888914
2023-05-10T03:20:31.765Z,6.388888888888914
2023-05-10T03:21:31.763Z,6.388888888888914
2023-05-10T03:22:31.753Z,6.388888888888914
2023-05-10T03:23:31.748Z,6.388888888888914
2023-05-10T03:24:31.796Z,6.388888888888914
2023-05-10T03:25:31.675Z,6.388888888888914
2023-05-10T03:26:31.671Z,6.388888888888914
2023-05-10T03:27:31.730Z,6.388888888888914
2023-05-10T03:28:31.695Z,6.388888888888914
2023-05-10T03:29:31.658Z,6.388888888888914
2023-05-10T03:30:31.708Z,6.388888888888914
2023-05-10T03:31:31.833Z,6.388888888888914
2023-05-10T03:32:31.787Z,6.500000000000057
2023-05-10T03:33:31.755Z,6.500000000000057
2023-05-10T03:34:31.924Z,6.500000000000057
2023-05-10T03:35:31.709Z,6.500000000000057
2023-05-10T03:36:31.678Z,6.611111111111143
2023-05-10T03:37:31.658Z,6.611111111111143
2023-05-10T03:38:31.792Z,6.611111111111143
2023-05-10T03:39:31.640Z,6.722222222222285
2023-05-10T03:40:31.657Z,6.722222222222285
2023-05-10T03:41:31.707Z,6.777777777777828
2023-05-10T03:42:31.709Z,6.777777777777828
2023-05-10T03:43:31.856Z,6.777777777777828
2023-05-10T03:44:31.783Z,6.777777777777828
2023-05-10T03:45:31.681Z,6.888888888888914
2023-05-10T03:46:31.838Z,6.888888888888914
2023-05-10T03:47:31.673Z,6.888888888888914
2023-05-10T03:48:31.638Z,6.888888888888914
2023-05-10T03:49:31.659Z,7.000000000000057
2023-05-10T03:50:31.742Z,7.000000000000057
2023-05-10T03:51:31.706Z,7.111111111111143
2023-05-10T03:52:31.638Z,7.111111111111143
2023-05-10T03:53:31.705Z,7.111111111111143
2023-05-10T03:54:31.715Z,7.222222222222285
2023-05-10T03:55:31.756Z,7.222222222222285
2023-05-10T03:56:31.608Z,7.277777777777828
2023-05-10T03:57:31.629Z,7.277777777777828
2023-05-10T03:58:31.655Z,7.388888888888914
2023-05-10T03:59:31.640Z,7.388888888888914
2023-05-10T04:00:31.656Z,7.388888888888914
2023-05-10T04:01:31.706Z,7.500000000000057
2023-05-10T04:02:31.768Z,7.500000000000057
2023-05-10T04:03:31.805Z,7.500000000000057
2023-05-10T04:04:31.702Z,7.500000000000057
2023-05-10T04:05:31.625Z,7.500000000000057
2023-05-10T04:06:31.714Z,7.611111111111143
2023-05-10T04:07:31.629Z,7.611111111111143
2023-05-10T04:08:31.700Z,7.7222222222222285
2023-05-10T04:09:31.651Z,7.7222222222222285
2023-05-10T04:10:31.679Z,7.7222222222222285
2023-05-10T04:11:31.650Z,7.777777777777828
2023-05-10T04:12:31.597Z,7.777777777777828
2023-05-10T04:13:31.639Z,7.888888888888914
2023-05-10T04:14:31.664Z,7.888888888888914
2023-05-10T04:15:31.648Z,8.000000000000057
2023-05-10T04:16:31.679Z,8.000000000000057
2023-05-10T04:17:31.694Z,8.000000000000057
2023-05-10T04:18:31.668Z,8.111111111111143
2023-05-10T04:19:31.873Z,8.111111111111143
2023-05-10T04:20:31.665Z,8.111111111111143
2023-05-10T04:21:31.665Z,8.222222222222285
2023-05-10T04:22:31.729Z,8.222222222222285
2023-05-10T04:23:31.659Z,8.222222222222285
2023-05-10T04:24:31.656Z,8.277777777777828
2023-05-10T04:25:31.711Z,8.277777777777828
2023-05-10T04:26:31.647Z,8.277777777777828
2023-05-10T04:27:31.685Z,8.277777777777828
2023-05-10T04:28:31.672Z,8.277777777777828
2023-05-10T04:29:31.621Z,8.388888888888971
2023-05-10T04:30:31.642Z,8.388888888888971
2023-05-10T04:31:31.665Z,8.388888888888971
2023-05-10T04:32:31.660Z,8.500000000000057
2023-05-10T04:33:31.649Z,8.611111111111143
2023-05-10T04:34:31.632Z,8.611111111111143
2023-05-10T04:35:31.663Z,8.611111111111143
2023-05-10T04:36:31.642Z,8.611111111111143
2023-05-10T04:37:31.658Z,8.722222222222285
2023-05-10T04:38:31.686Z,8.777777777777828
2023-05-10T04:39:31.735Z,8.777777777777828
2023-05-10T04:40:31.673Z,8.888888888888914
2023-05-10T04:41:31.728Z,8.888888888888914
2023-05-10T04:42:31.619Z,9.000000000000057
2023-05-10T04:43:31.651Z,9.000000000000057
2023-05-10T04:44:31.611Z,9.111111111111143
2023-05-10T04:45:31.626Z,9.111111111111143
2023-05-10T04:46:31.626Z,9.111111111111143
2023-05-10T04:47:31.688Z,9.222222222222285
2023-05-10T04:48:31.663Z,9.277777777777828
2023-05-10T04:49:31.724Z,9.277777777777828
2023-05-10T04:50:31.649Z,9.277777777777828
2023-05-10T04:51:31.655Z,9.388888888888914
2023-05-10T04:52:31.744Z,9.388888888888914
2023-05-10T04:53:31.632Z,9.388888888888914
2023-05-10T04:54:31.643Z,9.500000000000057
2023-05-10T04:55:31.736Z,9.500000000000057
2023-05-10T04:56:31.626Z,9.611111111111143
2023-05-10T04:57:31.606Z,9.611111111111143
2023-05-10T04:58:31.636Z,9.611111111111143
2023-05-10T04:59:31.685Z,9.722222222222285
2023-05-10T05:00:31.700Z,9.722222222222285
2023-05-10T05:01:31.718Z,9.888888888888914
2023-05-10T05:02:31.702Z,10.000000000000057
2023-05-10T05:03:31.733Z,10.222222222222229
2023-05-10T05:04:31.621Z,10.222222222222229
2023-05-10T05:05:31.641Z,10.222222222222229
2023-05-10T05:06:31.790Z,10.222222222222229
2023-05-10T05:07:31.691Z,10.111111111111143
2023-05-10T05:08:31.625Z,10.111111111111143
2023-05-10T05:09:31.629Z,10.111111111111143
2023-05-10T05:10:31.650Z,10.111111111111143
2023-05-10T05:11:31.660Z,10.111111111111143
2023-05-10T05:12:31.661Z,10.222222222222229
2023-05-10T05:13:31.718Z,10.222222222222229
2023-05-10T05:14:31.657Z,10.222222222222229
2023-05-10T05:15:31.695Z,10.277777777777828
2023-05-10T05:16:31.785Z,10.277777777777828
2023-05-10T05:17:31.656Z,10.388888888888914
2023-05-10T05:18:31.615Z,10.500000000000057
2023-05-10T05:19:31.661Z,10.777777777777828
2023-05-10T05:20:31.629Z,11.000000000000057
2023-05-10T05:21:31.662Z,11.222222222222285
2023-05-10T05:22:31.626Z,11.500000000000057
2023-05-10T05:23:31.749Z,11.500000000000057
2023-05-10T05:24:31.766Z,11.500000000000057
2023-05-10T05:25:31.711Z,11.6111111111112
2023-05-10T05:26:31.629Z,11.6111111111112
2023-05-10T05:27:31.625Z,11.6111111111112
2023-05-10T05:28:31.651Z,11.722222222222229
2023-05-10T05:29:31.656Z,11.888888888888971
2023-05-10T05:30:31.633Z,12.222222222222285
2023-05-10T05:31:31.715Z,12.222222222222285
2023-05-10T05:32:31.667Z,12.222222222222285
2023-05-10T05:33:31.630Z,12.222222222222285
2023-05-10T05:34:31.622Z,12.222222222222285
2023-05-10T05:35:31.651Z,12.388888888888914
2023-05-10T05:36:31.658Z,12.388888888888914
2023-05-10T05:37:31.623Z,12.277777777777828
2023-05-10T05:38:31.612Z,12.277777777777828
2023-05-10T05:39:31.671Z,12.277777777777828
2023-05-10T05:40:31.647Z,12.611111111111143
2023-05-10T05:41:31.769Z,12.611111111111143
2023-05-10T05:42:31.596Z,12.722222222222285
2023-05-10T05:43:31.647Z,13.000000000000057
2023-05-10T05:44:31.640Z,13.111111111111143
2023-05-10T05:45:31.696Z,13.111111111111143
2023-05-10T05:46:31.621Z,13.111111111111143
2023-05-10T05:47:31.688Z,13.000000000000057
2023-05-10T05:48:31.616Z,12.888888888888914
2023-05-10T05:49:31.619Z,12.888888888888914
2023-05-10T05:50:31.600Z,12.888888888888914
2023-05-10T05:51:31.639Z,13.111111111111143
2023-05-10T05:52:31.656Z,13.111111111111143
2023-05-10T05:53:31.596Z,13.111111111111143
2023-05-10T05:54:31.652Z,13.277777777777828
2023-05-10T05:55:31.657Z,13.388888888888914
2023-05-10T05:56:31.648Z,13.500000000000057
2023-05-10T05:57:31.625Z,13.500000000000057
2023-05-10T05:58:31.670Z,13.500000000000057
2023-05-10T05:59:31.636Z,13.277777777777828
2023-05-10T06:00:31.721Z,13.277777777777828
2023-05-10T06:01:31.646Z,13.500000000000057
2023-05-10T06:02:31.721Z,13.722222222222285
2023-05-10T06:03:31.765Z,13.722222222222285
2023-05-10T06:04:31.681Z,13.722222222222285
2023-05-10T06:05:31.631Z,13.722222222222285
2023-05-10T06:06:31.672Z,13.777777777777828
2023-05-10T06:07:31.652Z,13.888888888888971
2023-05-10T06:08:31.710Z,14.000000000000057
2023-05-10T06:09:31.639Z,14.000000000000057
2023-05-10T06:10:32.588Z,14.000000000000057
2023-05-10T06:11:41.274Z,14.000000000000057
2023-05-10T06:12:45.279Z,14.000000000000057
2023-05-10T06:13:49.225Z,13.888888888888971
2023-05-10T06:14:53.211Z,13.777777777777828
2023-05-10T06:15:57.243Z,13.777777777777828
2023-05-10T06:17:01.403Z,13.777777777777828
2023-05-10T06:18:05.239Z,14.000000000000057
2023-05-10T06:19:09.228Z,14.000000000000057
2023-05-10T06:20:13.269Z,13.777777777777828
2023-05-10T06:21:17.281Z,13.722222222222285
2023-05-10T06:22:21.201Z,13.722222222222285
2023-05-10T06:23:25.203Z,13.6111111111112
2023-05-10T06:24:29.262Z,13.500000000000057
2023-05-10T06:25:31.631Z,13.500000000000057
2023-05-10T06:26:31.664Z,13.722222222222285
2023-05-10T06:27:31.670Z,13.777777777777828
2023-05-10T06:28:31.634Z,14.000000000000057
2023-05-10T06:29:31.657Z,14.1111111111112
2023-05-10T06:30:31.732Z,14.222222222222229
2023-05-10T06:31:31.699Z,14.222222222222229
2023-05-10T06:32:31.700Z,13.888888888888971
2023-05-10T06:33:31.635Z,13.888888888888971
2023-05-10T06:34:31.750Z,13.888888888888971
2023-05-10T06:35:31.644Z,13.888888888888971
2023-05-10T06:36:31.660Z,14.000000000000057
2023-05-10T06:37:31.630Z,14.000000000000057
2023-05-10T06:38:31.609Z,14.000000000000057
2023-05-10T06:39:31.632Z,14.000000000000057
2023-05-10T06:40:31.620Z,14.000000000000057
2023-05-10T06:41:31.607Z,14.000000000000057
2023-05-10T06:42:31.589Z,14.000000000000057
2023-05-10T06:43:31.667Z,14.1111111111112
2023-05-10T06:44:31.636Z,14.222222222222229
2023-05-10T06:45:31.814Z,14.222222222222229
2023-05-10T06:46:31.679Z,14.277777777777828
2023-05-10T06:47:31.676Z,14.388888888888971
2023-05-10T06:48:31.636Z,14.388888888888971
2023-05-10T06:49:31.628Z,14.222222222222229
2023-05-10T06:50:31.619Z,14.1111111111112
2023-05-10T06:51:31.630Z,14.1111111111112
2023-05-10T06:52:31.633Z,14.222222222222229
2023-05-10T06:53:31.626Z,14.277777777777828
2023-05-10T06:54:31.619Z,14.388888888888971
2023-05-10T06:55:31.628Z,14.388888888888971
2023-05-10T06:56:31.642Z,14.388888888888971
2023-05-10T06:57:32.344Z,14.388888888888971
2023-05-10T06:58:31.619Z,14.611111111111143
2023-05-10T06:59:31.813Z,14.777777777777828
2023-05-10T07:00:31.804Z,14.777777777777828
2023-05-10T07:01:31.672Z,14.722222222222285
2023-05-10T07:02:31.650Z,14.722222222222285
2023-05-10T07:03:31.645Z,14.722222222222285
2023-05-10T07:04:31.902Z,14.722222222222285
2023-05-10T07:05:31.653Z,14.722222222222285
2023-05-10T07:06:33.960Z,14.722222222222285
2023-05-10T07:07:31.799Z,14.888888888888914
2023-05-10T07:08:31.612Z,15.000000000000057
2023-05-10T07:09:31.736Z,15.000000000000057
2023-05-10T07:10:31.635Z,15.222222222222285
2023-05-10T07:11:31.624Z,15.277777777777828
2023-05-10T07:12:31.659Z,15.500000000000057
2023-05-10T07:13:31.657Z,15.722222222222285
2023-05-10T07:14:31.618Z,15.722222222222285
2023-05-10T07:15:31.644Z,15.777777777777828
2023-05-10T07:16:31.651Z,15.888888888888914
2023-05-10T07:17:31.835Z,15.888888888888914
2023-05-10T07:18:31.655Z,16.000000000000057
2023-05-10T07:19:31.626Z,16.000000000000057
2023-05-10T07:20:31.602Z,16.000000000000057
2023-05-10T07:21:31.705Z,16.000000000000057
2023-05-10T07:22:31.638Z,16.000000000000057
2023-05-10T07:23:31.641Z,16.000000000000057
2023-05-10T07:24:31.636Z,16.1111111111112
2023-05-10T07:25:31.629Z,16.27777777777783
2023-05-10T07:26:31.722Z,16.27777777777783
2023-05-10T07:27:31.661Z,16.500000000000057
2023-05-10T07:28:31.707Z,16.77777777777783
2023-05-10T07:29:31.633Z,16.88888888888897
2023-05-10T07:30:31.694Z,16.88888888888897
2023-05-10T07:31:31.669Z,16.88888888888897
2023-05-10T07:32:31.767Z,16.77777777777783
2023-05-10T07:33:31.692Z,16.77777777777783
2023-05-10T07:34:31.618Z,16.77777777777783
2023-05-10T07:35:31.649Z,16.77777777777783
2023-05-10T07:36:31.609Z,16.88888888888897
2023-05-10T07:37:31.617Z,16.88888888888897
2023-05-10T07:38:31.653Z,17.111111111111143
2023-05-10T07:39:31.646Z,17.222222222222285
2023-05-10T07:40:31.716Z,17.27777777777783
2023-05-10T07:41:31.617Z,17.27777777777783
2023-05-10T07:42:31.621Z,17.388888888888914
2023-05-10T07:43:31.581Z,17.500000000000057
2023-05-10T07:44:31.650Z,17.611111111111143
2023-05-10T07:45:31.665Z,17.611111111111143
2023-05-10T07:46:31.691Z,17.500000000000057
2023-05-10T07:47:31.658Z,17.27777777777783
2023-05-10T07:48:31.607Z,17.222222222222285
2023-05-10T07:49:31.650Z,17.222222222222285
2023-05-10T07:50:31.636Z,17.222222222222285
2023-05-10T07:51:31.605Z,17.222222222222285
2023-05-10T07:52:31.600Z,17.222222222222285
2023-05-10T07:53:31.599Z,17.222222222222285
2023-05-10T07:54:31.690Z,17.222222222222285
2023-05-10T07:55:31.600Z,17.27777777777783
2023-05-10T07:56:31.590Z,17.388888888888914
2023-05-10T07:57:31.583Z,17.500000000000057
2023-05-10T07:58:31.660Z,17.500000000000057
2023-05-10T07:59:31.616Z,17.500000000000057
2023-05-10T08:00:31.616Z,17.722222222222285
2023-05-10T08:01:31.611Z,17.722222222222285
2023-05-10T08:02:31.697Z,18.000000000000057
2023-05-10T08:03:31.736Z,18.111111111111143
2023-05-10T08:04:31.756Z,18.111111111111143
2023-05-10T08:05:32.039Z,18.222222222222285
2023-05-10T08:06:31.615Z,18.388888888888914
2023-05-10T08:07:31.609Z,18.500000000000057
2023-05-10T08:08:31.657Z,18.388888888888914
2023-05-10T08:09:31.679Z,18.222222222222285
2023-05-10T08:10:31.613Z,17.77777777777783
2023-05-10T08:11:33.184Z,17.722222222222285
2023-05-10T08:12:31.605Z,17.888888888888914
2023-05-10T08:13:31.584Z,18.222222222222285
2023-05-10T08:14:31.641Z,18.222222222222285
2023-05-10T08:15:31.622Z,18.111111111111143
2023-05-10T08:16:31.653Z,17.77777777777783
2023-05-10T08:17:31.626Z,17.722222222222285
2023-05-10T08:18:31.715Z,17.722222222222285
2023-05-10T08:19:31.624Z,17.77777777777783
2023-05-10T08:20:31.713Z,18.000000000000057
2023-05-10T08:21:31.587Z,18.111111111111143
2023-05-10T08:22:31.681Z,18.27777777777783
2023-05-10T08:23:31.621Z,18.500000000000057
2023-05-10T08:24:31.721Z,18.6111111111112
2023-05-10T08:25:31.617Z,18.6111111111112
2023-05-10T08:26:31.692Z,18.500000000000057
2023-05-10T08:27:31.617Z,18.388888888888914
2023-05-10T08:28:31.647Z,18.27777777777783
2023-05-10T08:29:38.628Z,18.27777777777783
2023-05-10T08:30:31.556Z,18.6111111111112
2023-05-10T08:31:31.740Z,18.6111111111112
2023-05-10T08:32:31.621Z,18.6111111111112
2023-05-10T08:33:31.659Z,18.6111111111112
2023-05-10T08:34:31.644Z,18.722222222222285
2023-05-10T08:35:31.612Z,18.722222222222285
2023-05-10T08:36:31.696Z,18.722222222222285
2023-05-10T08:37:31.616Z,18.6111111111112
2023-05-10T08:38:31.651Z,18.6111111111112
2023-05-10T08:39:31.746Z,18.88888888888897
2023-05-10T08:40:31.609Z,19.000000000000057
2023-05-10T08:41:31.932Z,19.000000000000057
2023-05-10T08:42:31.637Z,18.88888888888897
2023-05-10T08:43:31.616Z,18.88888888888897
2023-05-10T08:44:31.600Z,19.000000000000057
2023-05-10T08:45:31.577Z,19.000000000000057
2023-05-10T08:46:31.639Z,19.000000000000057
2023-05-10T08:47:31.657Z,18.77777777777783
2023-05-10T08:48:31.608Z,18.6111111111112
2023-05-10T08:49:31.585Z,18.500000000000057
2023-05-10T08:50:31.621Z,18.388888888888914
2023-05-10T08:51:31.612Z,18.388888888888914
2023-05-10T08:52:31.588Z,18.500000000000057
2023-05-10T08:53:31.610Z,18.500000000000057
2023-05-10T08:54:31.607Z,18.6111111111112
2023-05-10T08:55:31.615Z,18.77777777777783
2023-05-10T08:56:31.605Z,18.88888888888897
2023-05-10T08:57:31.601Z,19.000000000000057
2023-05-10T08:58:31.628Z,19.000000000000057
2023-05-10T08:59:31.628Z,18.77777777777783
2023-05-10T09:00:31.651Z,18.722222222222285
2023-05-10T09:01:31.772Z,18.6111111111112
2023-05-10T09:02:31.698Z,18.500000000000057
2023-05-10T09:03:31.636Z,18.388888888888914
2023-05-10T09:04:31.749Z,18.388888888888914
2023-05-10T09:05:31.606Z,18.27777777777783
2023-05-10T09:06:31.629Z,18.27777777777783
2023-05-10T09:07:31.690Z,18.388888888888914
2023-05-10T09:08:31.591Z,18.27777777777783
2023-05-10T09:09:31.693Z,18.27777777777783
2023-05-10T09:10:31.648Z,18.27777777777783
2023-05-10T09:11:31.606Z,18.27777777777783
2023-05-10T09:12:31.595Z,18.27777777777783
2023-05-10T09:13:31.599Z,18.388888888888914